Asian Infinity — 3EVP3 — position and weather

sailwx.info

Track history (hours):
 
Tides and Currents Weather Stations Pressure Air Temp Water Temp Dewpoint Dewpoint Depression Visibility Wind Speed Wind Dir Waves Ship Positions

Asian Infinity

Last reported at 2016-Aug-23 10:27 UTC. Time now 2016-Aug-24 21:31 UTC.
Position N 34°34' E 134°50'.

Length 104 m; draft 6.1 m.

Type: Cargo ship. MMSI: 351868000.

Date/timePositionNaut miles runAvg speedWind from/ knotsBaromVisibWave heightAir tempDewpointWater temp
2016-Aug-23 10:27N 34°34' E 134°50'9 9.6
2016-Aug-23 09:34N 34°38' E 134°59'7 6.6
2016-Aug-23 08:34N 34°35' E 135°07'9 8.5
2016-Aug-23 07:33N 34°38' E 135°16'4 3.4
2016-Aug-23 06:31N 34°42' E 135°15'0 0.0
2016-Aug-23 05:31N 34°42' E 135°15'0 0.0
2016-Aug-23 04:07N 34°42' E 135°15'0 0.0
2016-Aug-23 03:31N 34°42' E 135°15'0 0.0
2016-Aug-23 02:31N 34°42' E 135°15'0 0.0
2016-Aug-23 01:31N 34°42' E 135°15'0 0.0
2016-Aug-23 00:31N 34°42' E 135°15'0 0.0
2016-Aug-22 23:31N 34°42' E 135°15'0 0.0
2016-Aug-22 22:31N 34°42' E 135°15'0 0.0
2016-Aug-22 21:31N 34°42' E 135°15'0 0.0
2016-Aug-22 20:25N 34°42' E 135°15'0 0.0
2016-Aug-22 19:31N 34°42' E 135°15'0 0.0
2016-Aug-22 18:31N 34°42' E 135°15'0 0.0
2016-Aug-22 17:31N 34°42' E 135°15'0 0.0
2016-Aug-22 16:25N 34°42' E 135°15'0 0.0
2016-Aug-22 15:31N 34°42' E 135°15'0 0.0
2016-Aug-22 14:25N 34°42' E 135°15'0 0.0
2016-Aug-22 13:31N 34°42' E 135°15'0 0.0
2016-Aug-22 12:31N 34°42' E 135°15'0 0.0
2016-Aug-22 11:31N 34°42' E 135°15'0 0.0
2016-Aug-22 10:13N 34°42' E 135°15'0 0.0
2016-Aug-22 09:31N 34°42' E 135°15'0 0.0
2016-Aug-22 08:31N 34°42' E 135°15'0 0.0
2016-Aug-22 07:19N 34°42' E 135°15'0 0.0
2016-Aug-22 06:31N 34°42' E 135°15'0 0.0
2016-Aug-22 05:31N 34°42' E 135°15'0 0.0
2016-Aug-22 04:25N 34°42' E 135°15'0 0.0
2016-Aug-22 03:31N 34°42' E 135°15'0 0.0
2016-Aug-22 02:31N 34°42' E 135°15'0 0.0
2016-Aug-22 01:31N 34°42' E 135°15'0 0.0
2016-Aug-22 00:25N 34°42' E 135°15'0 0.0
2016-Aug-21 23:25N 34°42' E 135°15'0 0.5
2016-Aug-21 22:33N 34°42' E 135°15'5 5.4
2016-Aug-21 21:33N 34°36' E 135°16'6 5.9
2016-Aug-21 20:33N 34°31' E 135°13'6 6.1
2016-Aug-21 19:33N 34°27' E 135°08'10 9.9
2016-Aug-21 18:33N 34°19' E 134°60'10 9.8
2016-Aug-21 17:33N 34°09' E 134°60'1111.2
2016-Aug-21 16:33N 33°58' E 134°60'22810.8
2016-Aug-20 19:32N 34°57' E 139°26'1312.5
2016-Aug-20 18:28N 35°05' E 139°39'1111.7
2016-Aug-20 17:33N 35°14' E 139°46'1010.3
2016-Aug-20 16:33N 35°24' E 139°43'4 3.6
2016-Aug-20 15:32N 35°27' E 139°40'0 0.0
2016-Aug-20 14:32N 35°27' E 139°40'0 0.0
2016-Aug-20 13:32N 35°27' E 139°40'0 0.0
2016-Aug-20 12:32N 35°27' E 139°40'0 0.0
2016-Aug-20 11:32N 35°27' E 139°40'0 0.0
2016-Aug-20 10:32N 35°27' E 139°40'0 0.0
2016-Aug-20 09:32N 35°27' E 139°40'0 0.0
2016-Aug-20 08:32N 35°27' E 139°40'0 0.0
2016-Aug-20 07:32N 35°27' E 139°40'0 0.0
2016-Aug-20 06:32N 35°27' E 139°40'0 0.0
2016-Aug-20 05:32N 35°27' E 139°40'0 0.0
2016-Aug-20 04:32N 35°27' E 139°40'0 0.0
2016-Aug-20 03:32N 35°27' E 139°40'4 3.7
2016-Aug-20 02:33N 35°26' E 139°44'9 8.5
2016-Aug-20 01:33N 35°17' E 139°45'1010.3
2016-Aug-20 00:34N 35°07' E 139°46'1111.4
2016-Aug-19 23:33N 34°55' E 139°44'1211.1
2016-Aug-19 22:31N 34°51' E 139°58'1111.9
2016-Aug-19 21:33N 34°58' E 140°09'1211.6
2016-Aug-19 20:31N 35°04' E 140°21'1111.9
2016-Aug-19 19:33N 35°11' E 140°33'1410.1
2016-Aug-19 18:10N 35°21' E 140°45'610.3
2016-Aug-19 17:33N 35°27' E 140°49'1010.5
2016-Aug-19 16:33N 35°36' E 140°55'2310.6
2016-Aug-19 14:22N 35°59' E 140°54'911.0
2016-Aug-19 13:33N 36°08' E 140°54'  
2016-Aug-16 22:19N 36°28' E 140°46'  
Track history (hours):
 
Tides and Currents Weather Stations Pressure Air Temp Water Temp Dewpoint Dewpoint Depression Visibility Wind Speed Wind Dir Waves Ship Positions

Asian Infinity

Last reported at 2016-Aug-23 10:27 UTC. Time now 2016-Aug-24 21:31 UTC.
Position N 34°34' E 134°50'.

Length 104 m; draft 6.1 m.

Type: Cargo ship. MMSI: 351868000.

Date/timePositionNaut miles runAvg speedWind from/ knotsBaromVisibWave heightAir tempDewpointWater temp
2016-Aug-23 10:27N 34°34' E 134°50'9 9.6
2016-Aug-23 09:34N 34°38' E 134°59'7 6.6
2016-Aug-23 08:34N 34°35' E 135°07'9 8.5
2016-Aug-23 07:33N 34°38' E 135°16'4 3.4
2016-Aug-23 06:31N 34°42' E 135°15'0 0.0
2016-Aug-23 05:31N 34°42' E 135°15'0 0.0
2016-Aug-23 04:07N 34°42' E 135°15'0 0.0
2016-Aug-23 03:31N 34°42' E 135°15'0 0.0
2016-Aug-23 02:31N 34°42' E 135°15'0 0.0
2016-Aug-23 01:31N 34°42' E 135°15'0 0.0
2016-Aug-23 00:31N 34°42' E 135°15'0 0.0
2016-Aug-22 23:31N 34°42' E 135°15'0 0.0
2016-Aug-22 22:31N 34°42' E 135°15'0 0.0
2016-Aug-22 21:31N 34°42' E 135°15'0 0.0
2016-Aug-22 20:25N 34°42' E 135°15'0 0.0
2016-Aug-22 19:31N 34°42' E 135°15'0 0.0
2016-Aug-22 18:31N 34°42' E 135°15'0 0.0
2016-Aug-22 17:31N 34°42' E 135°15'0 0.0
2016-Aug-22 16:25N 34°42' E 135°15'0 0.0
2016-Aug-22 15:31N 34°42' E 135°15'0 0.0
2016-Aug-22 14:25N 34°42' E 135°15'0 0.0
2016-Aug-22 13:31N 34°42' E 135°15'0 0.0
2016-Aug-22 12:31N 34°42' E 135°15'0 0.0
2016-Aug-22 11:31N 34°42' E 135°15'0 0.0
2016-Aug-22 10:13N 34°42' E 135°15'0 0.0
2016-Aug-22 09:31N 34°42' E 135°15'0 0.0
2016-Aug-22 08:31N 34°42' E 135°15'0 0.0
2016-Aug-22 07:19N 34°42' E 135°15'0 0.0
2016-Aug-22 06:31N 34°42' E 135°15'0 0.0
2016-Aug-22 05:31N 34°42' E 135°15'0 0.0
2016-Aug-22 04:25N 34°42' E 135°15'0 0.0
2016-Aug-22 03:31N 34°42' E 135°15'0 0.0
2016-Aug-22 02:31N 34°42' E 135°15'0 0.0
2016-Aug-22 01:31N 34°42' E 135°15'0 0.0
2016-Aug-22 00:25N 34°42' E 135°15'0 0.0
2016-Aug-21 23:25N 34°42' E 135°15'0 0.5
2016-Aug-21 22:33N 34°42' E 135°15'5 5.4
2016-Aug-21 21:33N 34°36' E 135°16'6 5.9
2016-Aug-21 20:33N 34°31' E 135°13'6 6.1
2016-Aug-21 19:33N 34°27' E 135°08'10 9.9
2016-Aug-21 18:33N 34°19' E 134°60'10 9.8
2016-Aug-21 17:33N 34°09' E 134°60'1111.2
2016-Aug-21 16:33N 33°58' E 134°60'22810.8
2016-Aug-20 19:32N 34°57' E 139°26'1312.5
2016-Aug-20 18:28N 35°05' E 139°39'1111.7
2016-Aug-20 17:33N 35°14' E 139°46'1010.3
2016-Aug-20 16:33N 35°24' E 139°43'4 3.6
2016-Aug-20 15:32N 35°27' E 139°40'0 0.0
2016-Aug-20 14:32N 35°27' E 139°40'0 0.0
2016-Aug-20 13:32N 35°27' E 139°40'0 0.0
2016-Aug-20 12:32N 35°27' E 139°40'0 0.0
2016-Aug-20 11:32N 35°27' E 139°40'0 0.0
2016-Aug-20 10:32N 35°27' E 139°40'0 0.0
2016-Aug-20 09:32N 35°27' E 139°40'0 0.0
2016-Aug-20 08:32N 35°27' E 139°40'0 0.0
2016-Aug-20 07:32N 35°27' E 139°40'0 0.0
2016-Aug-20 06:32N 35°27' E 139°40'0 0.0
2016-Aug-20 05:32N 35°27' E 139°40'0 0.0
2016-Aug-20 04:32N 35°27' E 139°40'0 0.0
2016-Aug-20 03:32N 35°27' E 139°40'4 3.7
2016-Aug-20 02:33N 35°26' E 139°44'9 8.5
2016-Aug-20 01:33N 35°17' E 139°45'1010.3
2016-Aug-20 00:34N 35°07' E 139°46'1111.4
2016-Aug-19 23:33N 34°55' E 139°44'1211.1
2016-Aug-19 22:31N 34°51' E 139°58'1111.9
2016-Aug-19 21:33N 34°58' E 140°09'1211.6
2016-Aug-19 20:31N 35°04' E 140°21'1111.9
2016-Aug-19 19:33N 35°11' E 140°33'1410.1
2016-Aug-19 18:10N 35°21' E 140°45'610.3
2016-Aug-19 17:33N 35°27' E 140°49'1010.5
2016-Aug-19 16:33N 35°36' E 140°55'2310.6
2016-Aug-19 14:22N 35°59' E 140°54'911.0
2016-Aug-19 13:33N 36°08' E 140°54'  
2016-Aug-16 22:19N 36°28' E 140°46'  

Dump ship's entire track history